• Join FlightAware (Why Join?)
  • Login
  • US Flag 
12:04AM EDT


 

Airport Tracker/Info


-or-


 

Live Flight TrackerFlight Track Log ✈ WJA1211 ✈ 15-Apr-2013 ✈ KLGA - CYYZ

Flight Track Log - Related Links

Times and Time Zones

All times are in EDT time to prevent confusion due to time zone crossing. See the WJA1211 flight status page for this flight to view local times or setup timezone preferences in your user account.

Time Position Orientation Groundspeed Altitude Reporting Facility
EDT Latitude Longitude Course Direction KTS MPH feet Rate Location/Type
05:07PM 40.7500 -73.8333 327° Northwest 158 182 1,900  Level New York TRACON
05:09PM 40.8170 -73.9544 North  Level Estimated
05:09PM 40.7833 -73.7667 North 242 278 6,300  Level New York TRACON
05:10PM 40.8500 -73.8000 339° North 268 308 8,600 2,580 Climbing New York TRACON
05:11PM 40.9000 -73.8833 308° West 295 339 11,500 2,700 Climbing New York TRACON
05:12PM 40.9833 -73.9667 323° Northwest 337 388 14,100 2,280 Climbing New York TRACON
05:13PM 41.1918 -74.1844 327° Northwest  Level FlightAware Approximate
05:13PM 41.0500 -74.0500 317° Northwest 363 418 16,100  Level New York TRACON
05:15PM 41.1550 -74.1467 325° Northwest 386 444 16,000 -60 Descending New York Center
05:15PM 41.2506 -74.2261 328° Northwest 371 427 16,000  Level New York Center
05:16PM 41.3339 -74.2967 328° Northwest 360 414 16,000 1,200 Level New York Center
05:18PM 41.4128 -74.3783 322° Northwest 360 414 18,500 2,580 Climbing New York Center
05:19PM 41.4617 -74.4778 303° West 354 407 21,300 2,760 Climbing New York Center
05:19PM 41.5097 -74.5994 298° West 360 414 24,000 2,340 Climbing New York Center
05:20PM 41.5619 -74.7217 300° West 371 427 26,000 960 Climbing New York Center
05:22PM 41.6161 -74.8414 301° West 377 434 26,000  Level New York Center
05:23PM 41.6703 -74.9669 300° West 382 440 26,000  Level New York Center
05:23PM 41.7219 -75.0925 299° West 382 440 26,000  Level New York Center
05:24PM 41.7756 -75.2156 300° West 382 440 26,000  Level New York Center
05:25PM 41.8269 -75.3414 299° West 382 440 26,000  Level New York Center
05:27PM 41.8783 -75.4647 299° West 382 440 26,000  Level New York Center
05:28PM 41.9317 -75.5911 300° West 382 440 26,000  Level New York Center
05:28PM 41.9850 -75.7150 300° West 382 440 26,000  Level New York Center
05:29PM 42.0339 -75.8386 298° West 382 440 26,000  Level New York Center
05:30PM 42.0850 -75.9572 300° West 377 434 26,000  Level New York Center
05:31PM 42.1336 -76.0786 298° West 377 434 26,000  Level New York Center
05:32PM 42.1783 -76.1994 297° West 372 428 26,000  Level New York Center
05:34PM 42.2183 -76.3233 294° West 367 422 26,000  Level New York Center
05:35PM 42.2639 -76.4722 293° West 359 413 26,000  Level Cleveland Center
05:36PM 42.3036 -76.5961 293° West 359 413 26,000  Level Cleveland Center
05:37PM 42.3481 -76.7339 294° West 376 433 26,000  Level Cleveland Center
05:38PM 42.3900 -76.8692 293° West 392 451 26,000  Level Cleveland Center
05:39PM 42.4342 -77.0128 293° West 398 458 26,000  Level Cleveland Center
05:40PM 42.4781 -77.1511 293° West 403 464 26,000  Level Cleveland Center
05:41PM 42.5217 -77.2897 293° West 408 470 26,000  Level Cleveland Center
05:42PM 42.5631 -77.4286 292° West 408 470 26,000  Level Cleveland Center
05:43PM 42.6017 -77.5536 293° West 408 470 26,000  Level Cleveland Center
05:44PM 42.6428 -77.6928 292° West 408 470 26,000  Level Cleveland Center
05:45PM 42.6881 -77.8319 294° West 408 470 26,000  Level Cleveland Center
05:46PM 42.7286 -77.9631 293° West 402 463 26,000  Level Cleveland Center
05:47PM 42.7669 -78.0944 292° West 391 450 26,000  Level Cleveland Center
05:48PM 42.8050 -78.2203 292° West 379 436 26,000  Level Cleveland Center
05:49PM 42.8431 -78.3492 292° West 368 423 26,000 -240 Level Cleveland Center
05:50PM 42.8808 -78.4753 292° West 368 423 25,600 -840 Descending Cleveland Center
05:51PM 42.9164 -78.5989 291° West 368 423 24,400 -1,320 Descending Cleveland Center
05:52PM 42.9683 -78.7164 301° West 368 423 23,000 -1,500 Descending Cleveland Center
05:53PM 43.0242 -78.8197 306° West 355 409 21,400 -1,860 Descending Cleveland Center
05:53PM 43.0667 -78.9000 306° West 330 380 19,500 -1,620 Descending Toronto Center
05:54PM 43.0500 -79.0167 259° West 300 345 18,300 -1,320 Descending Toronto Center
05:55PM 43.0833 -79.1333 291° West 290 334 16,900 -1,440 Descending Toronto Center
05:56PM 43.1500 -79.2000 324° Northwest 300 345 15,500 -1,500 Descending Toronto Center
05:57PM 43.2167 -79.2667 324° Northwest 300 345 14,000 -1,500 Descending Toronto Center
05:58PM 43.2833 -79.3167 331° Northwest 290 334 12,500 -1,500 Descending Toronto Center
05:59PM 43.3500 -79.3500 340° North 300 345 11,100 -1,500 Descending Toronto Center
06:00PM 43.4333 -79.4000 336° Northwest 300 345 9,500 -1,080 Descending Toronto Center
06:02PM 43.5833 -79.4667 342° North 290 334 8,000 -660 Descending Toronto Center
06:03PM 43.6000 -79.5333 289° West 240 276 7,600 -900 Descending Toronto Center
06:04PM 43.5667 -79.5833 227° Southwest 200 230 6,300 -1,260 Descending Toronto Center
06:05PM 43.5167 -79.6333 216° Southwest 200 230 5,100 -900 Descending Toronto Center
06:06PM 43.4833 -79.7000 235° Southwest 190 219 4,500 -600 Descending Toronto Center
06:07PM 43.4333 -79.7500 216° Southwest 200 230 4,000 -540 Descending Toronto Center
06:08PM 43.4667 -79.8167 305° West 220 253 3,500 -540 Descending Toronto Center
06:09PM 43.5167 -79.8000 33° Northeast 240 276 3,000 -300 Descending Toronto Center
06:10PM 43.5415 -79.7507 33° Northeast  Level Estimated
06:10PM 43.5667 -79.7167 50° Northeast 210 242 3,000  Level Toronto Center
06:11PM 43.6000 -79.6833 36° Northeast 200 230 2,100 -900 Descending Toronto Center
06:12PM 43.6167 -79.6333 65° Northeast 150 173 1,300 -780 Descending Toronto Center
06:13PM 43.6500 -79.6167 20° North 130 150 600 13,800 Descending Toronto Center
06:15PM 42.6000 -83.2500 250° West 520 598 37,000 14,040 Climbing Toronto Center
06:16PM 42.6167 -83.0500 83° East 530 610 37,000  Level Toronto Center
06:17PM 42.6167 -82.8667 90° East 530 610 37,000  Level Toronto Center